Wednesday, January 17, 2018, 7:15 PM EST
Back to Local

KLEW, Auburn-lewiston

Location: Auburn, ME, United States Lat: 44.05
Local Time: 7:15 PM EST ( 0:15 GMT) Lon: -70.283
Time Zone: US/Eastern Elev: 288 ft

Show me the last for .
Show Decoded

2018-01-17 05:56 METAR KLEW 171056Z AUTO 01004KT 2SM -SN BR OVC021 M06/M07 A3037 RMK AO2 VIS 1
                 3/4V3 SLP302 P0000 T10611067 FZRANO =
2018-01-17 05:34 METAR KLEW 171034Z AUTO 36005KT 2 1/2SM -SN BR OVC019 M06/M07 A3037 RMK AO2 VIS
                 1 3/4V3 P0000 FZRANO =
2018-01-17 04:56 METAR KLEW 170956Z AUTO 34003KT 1 1/4SM -SN BR OVC019 M06/M07 A3038 RMK AO2
                 SLP305 P0000 T10561067 FZRANO =
2018-01-17 03:56 METAR KLEW 170856Z AUTO 00000KT 1 3/4SM -SN BR OVC021 M06/M07 A3038 RMK AO2
                 SLP304 P0001 60003 T10561067 58007 FZRANO =
2018-01-17 03:17 METAR KLEW 170817Z AUTO 00000KT 1 3/4SM -SN BR OVC021 M06/M07 A3039 RMK AO2
                 P0000 FZRANO =
2018-01-17 03:06 METAR KLEW 170806Z AUTO 00000KT 2SM -SN BR OVC021 M06/M07 A3039 RMK AO2 P0000
                 FZRANO =
2018-01-17 02:56 METAR KLEW 170756Z AUTO 00000KT 1 3/4SM -SN BR OVC019 M06/M07 A3039 RMK AO2
                 SLP308 P0001 T10561067 FZRANO =
2018-01-17 02:14 METAR KLEW 170714Z AUTO 01003KT 1 1/2SM -SN BR OVC019 M06/M07 A3039 RMK AO2
                 P0000 FZRANO =
2018-01-17 02:03 METAR KLEW 170703Z AUTO 01004KT 2SM -SN BR OVC024 M06/M07 A3039 RMK AO2 P0000
                 FZRANO =
2018-01-17 01:56 METAR KLEW 170656Z AUTO 01003KT 1 3/4SM -SN BR OVC026 M06/M07 A3039 RMK AO2
                 SLP309 P0001 T10611072 FZRANO =
2018-01-17 01:32 METAR KLEW 170632Z AUTO 00000KT 2SM -SN BR OVC026 M06/M07 A3040 RMK AO2 P0001
                 FZRANO =
2018-01-17 00:56 METAR KLEW 170556Z AUTO 35003KT 1 3/4SM -SN BR OVC026 M06/M07 A3040 RMK AO2
                 SLP311 P0001 60001 T10611072 11061 21072 58010 FZRANO =
2018-01-17 00:36 METAR KLEW 170536Z AUTO 01003KT 2SM -SN BR OVC028 M06/M07 A3040 RMK AO2 P0001
                 FZRANO =
2018-01-17 00:23 METAR KLEW 170523Z AUTO 35003KT 1 3/4SM -SN BR OVC028 M06/M07 A3040 RMK AO2
                 P0001 FZRANO =
2018-01-16 23:56 METAR KLEW 170456Z AUTO 35003KT 2SM -SN BR OVC028 M06/M07 A3041 RMK AO2 SLP317
                 P0000 T10611072 FZRANO =
2018-01-16 23:53 METAR KLEW 170453Z AUTO 35003KT 2SM -SN BR OVC028 M06/M07 A3042 RMK AO2 P0000
                 FZRANO =
2018-01-16 23:39 METAR KLEW 170439Z AUTO 35003KT 1 3/4SM -SN BR BKN026 OVC031 M06/M07 A3042 RMK
                 AO2 P0000 FZRANO =
2018-01-16 23:11 METAR KLEW 170411Z AUTO 35003KT 2SM -SN BR BKN032 OVC044 M07/M08 A3043 RMK AO2
                 P0000 FZRANO =
2018-01-16 22:56 METAR KLEW 170356Z AUTO 36003KT 4SM -SN BR FEW026 SCT031 OVC043 M06/M08 A3043
                 RMK AO2 UPB26E40SNE26B40 SLP322 P0000 T10611078 410171106 FZRANO =
2018-01-16 22:54 METAR KLEW 170354Z AUTO 36003KT 4SM -SN BR FEW026 SCT031 OVC043 M06/M08 A3043
                 RMK AO2 UPB26E40SNE26B40 P0000 410171106 FZRANO =
2018-01-16 22:22 METAR KLEW 170322Z AUTO 00000KT 3SM -SN BKN028 OVC036 M06/M09 A3044 RMK AO2
                 P0000 FZRANO =
2018-01-16 21:56 METAR KLEW 170256Z AUTO 00000KT 5SM -SN BR BKN034 OVC047 M07/M09 A3045 RMK AO2
                 SNB07 SLP327 P0000 60000 T10671089 55000 FZRANO =
2018-01-16 20:56 METAR KLEW 170156Z AUTO 00000KT 10SM BKN050 OVC070 M06/M09 A3045 RMK AO2 SLP327
                 T10611089 FZRANO =
2018-01-16 19:56 METAR KLEW 170056Z AUTO 00000KT 10SM CLR M07/M10 A3044 RMK AO2 SLP327 T10721100
                 FZRANO =

Support USWX by starting your Amazon purchase here.